Time;durP1;ratioP1;P1;durP2;ratioP2;P2;SDS_P1;SDS_P2;PMS_P1;PMS_P2;Temp;Humidity;BMP_temperature;BMP_pressure;BME280_temperature;BME280_humidity;BME280_pressure;Samples;Min_cycle;Max_cycle;Signal;HPM_P1;HPM_P2
2022/06/15 00:01:24;;;;;;;5.03;4.13;;;15.30;77.70;;;;;;5064400;28;20232;-63
2022/06/15 00:03:50;;;;;;;5.37;4.40;;;15.30;77.80;;;;;;5041517;28;20225;-63
2022/06/15 00:06:19;;;;;;;5.07;4.37;;;15.30;77.60;;;;;;5054773;28;20195;-64
2022/06/15 00:08:47;;;;;;;5.53;4.07;;;15.30;77.60;;;;;;5058211;28;20246;-63
2022/06/15 00:11:25;;;;;;;4.57;3.97;;;15.20;77.90;;;;;;5047058;28;20199;-63
2022/06/15 00:13:53;;;;;;;6.70;4.30;;;15.20;77.90;;;;;;5041213;28;20283;-63
2022/06/15 00:16:20;;;;;;;7.30;4.67;;;15.20;78.10;;;;;;5045157;28;20265;-65
2022/06/15 00:18:46;;;;;;;8.00;4.87;;;15.20;77.80;;;;;;5044903;28;20192;-65
2022/06/15 00:21:14;;;;;;;6.57;4.33;;;15.20;77.40;;;;;;5040871;28;20205;-63
2022/06/15 00:23:40;;;;;;;4.63;4.07;;;15.20;77.70;;;;;;5039743;28;20191;-63
2022/06/15 00:26:06;;;;;;;4.60;3.90;;;15.20;77.80;;;;;;5045367;28;20194;-62
2022/06/15 00:28:33;;;;;;;5.23;4.13;;;15.20;77.90;;;;;;5046461;28;20186;-61
2022/06/15 00:30:59;;;;;;;4.50;4.10;;;15.00;78.00;;;;;;5032580;28;20197;-61
2022/06/15 00:33:26;;;;;;;6.13;4.13;;;15.00;78.20;;;;;;5065358;28;20202;-61
2022/06/15 00:35:58;;;;;;;5.70;4.30;;;15.00;78.20;;;;;;5059399;28;20261;-61
2022/06/15 00:38:39;;;;;;;5.50;4.40;;;15.00;78.20;;;;;;5067347;28;20192;-61
2022/06/15 00:41:09;;;;;;;4.93;4.00;;;14.90;78.50;;;;;;5039390;28;20186;-61
2022/06/15 00:43:38;;;;;;;6.50;3.93;;;14.90;78.10;;;;;;5034727;28;20187;-61
2022/06/15 00:46:34;;;;;;;4.67;4.20;;;14.90;78.30;;;;;;5062204;28;20191;-61
2022/06/15 00:49:41;;;;;;;5.13;4.30;;;14.90;78.30;;;;;;5050864;28;20216;-60
2022/06/15 00:52:13;;;;;;;10.10;4.97;;;14.80;78.40;;;;;;5053412;28;20248;-60
2022/06/15 00:54:40;;;;;;;4.93;4.43;;;14.80;78.50;;;;;;5071258;28;20190;-61
2022/06/15 00:57:06;;;;;;;4.87;4.20;;;14.80;78.70;;;;;;5030195;28;20191;-60
2022/06/15 00:59:43;;;;;;;8.30;4.90;;;14.70;78.80;;;;;;5052722;28;20218;-61
2022/06/15 01:02:09;;;;;;;5.20;3.87;;;14.80;78.80;;;;;;5047066;28;20286;-60
2022/06/15 01:04:53;;;;;;;6.23;4.43;;;14.70;79.10;;;;;;5046570;28;20185;-61
2022/06/15 01:07:48;;;;;;;5.40;3.93;;;14.60;79.10;;;;;;5058581;28;20182;-60
2022/06/15 01:10:35;;;;;;;5.53;4.00;;;14.60;79.20;;;;;;5054905;28;20189;-63
2022/06/15 01:13:16;;;;;;;7.43;4.33;;;14.60;79.20;;;;;;5051650;28;20252;-62
2022/06/15 01:15:51;;;;;;;4.40;3.93;;;14.60;79.30;;;;;;5048557;28;20198;-62
2022/06/15 01:18:34;;;;;;;6.57;4.77;;;14.60;79.40;;;;;;5053412;28;20174;-62
2022/06/15 01:21:10;;;;;;;7.20;4.50;;;14.50;79.70;;;;;;5045634;28;20178;-62
2022/06/15 01:24:00;;;;;;;6.80;4.73;;;14.50;79.60;;;;;;5040589;28;20228;-62
2022/06/15 01:26:59;;;;;;;8.77;4.63;;;14.50;79.70;;;;;;5060655;28;20192;-62
2022/06/15 01:30:05;;;;;;;6.87;5.03;;;14.40;79.60;;;;;;5070770;28;20193;-61
2022/06/15 01:32:30;;;;;;;7.20;5.13;;;14.30;80.10;;;;;;5054031;28;20203;-62
2022/06/15 01:35:06;;;;;;;5.57;4.57;;;14.30;80.30;;;;;;5064651;28;20190;-62
2022/06/15 01:37:56;;;;;;;5.27;4.27;;;14.30;80.10;;;;;;5054374;28;20277;-63
2022/06/15 01:40:36;;;;;;;5.77;4.80;;;14.30;80.20;;;;;;5051698;28;20261;-63
2022/06/15 01:43:18;;;;;;;7.50;4.50;;;14.30;80.40;;;;;;5062308;28;20240;-62
2022/06/15 01:45:45;;;;;;;5.97;4.50;;;14.30;80.40;;;;;;5050735;28;20183;-62
2022/06/15 01:48:12;;;;;;;5.07;4.33;;;14.20;80.50;;;;;;5035742;28;20241;-62
2022/06/15 01:50:52;;;;;;;5.83;4.53;;;14.20;80.50;;;;;;5063821;28;20201;-62
2022/06/15 01:53:29;;;;;;;11.40;5.10;;;14.10;80.50;;;;;;5038561;28;20195;-62
2022/06/15 01:56:17;;;;;;;6.90;4.30;;;14.10;80.70;;;;;;5056592;28;20182;-62
2022/06/15 01:58:47;;;;;;;4.80;4.30;;;14.10;80.80;;;;;;5072446;28;20177;-62
2022/06/15 02:01:17;;;;;;;5.00;4.30;;;14.10;80.60;;;;;;5065349;28;20261;-62
2022/06/15 02:03:55;;;;;;;6.67;4.73;;;14.10;80.80;;;;;;5044815;28;20202;-63
2022/06/15 02:06:33;;;;;;;8.93;5.13;;;14.00;80.90;;;;;;5057023;28;20191;-62
2022/06/15 02:09:30;;;;;;;5.17;4.37;;;14.00;80.90;;;;;;5040737;28;20190;-62
2022/06/15 02:12:01;;;;;;;4.57;4.03;;;14.00;81.10;;;;;;5040339;28;20207;-62
2022/06/15 02:14:35;;;;;;;5.23;4.73;;;14.00;81.00;;;;;;5061647;28;20206;-63
2022/06/15 02:17:06;;;;;;;6.20;4.50;;;14.00;81.10;;;;;;5062903;28;20245;-62
2022/06/15 02:19:54;;;;;;;5.63;4.93;;;14.00;80.90;;;;;;5056016;28;20178;-62
2022/06/15 02:22:25;;;;;;;5.43;4.87;;;13.90;81.10;;;;;;5058569;28;20179;-63
2022/06/15 02:24:54;;;;;;;4.53;4.13;;;13.90;81.40;;;;;;5056124;28;20197;-62
2022/06/15 02:27:22;;;;;;;5.43;4.80;;;13.90;81.40;;;;;;5043730;28;20214;-62
2022/06/15 02:29:52;;;;;;;5.67;4.80;;;13.90;81.30;;;;;;5054780;28;20188;-62
2022/06/15 02:32:18;;;;;;;5.03;4.40;;;13.90;81.30;;;;;;5051668;28;20262;-63
2022/06/15 02:34:44;;;;;;;5.90;4.60;;;13.80;81.30;;;;;;5035702;28;20282;-62
2022/06/15 02:37:11;;;;;;;7.67;4.43;;;13.80;81.40;;;;;;5077665;28;20242;-63
2022/06/15 02:39:37;;;;;;;7.53;5.13;;;13.80;81.50;;;;;;5045707;28;20183;-62
2022/06/15 02:42:30;;;;;;;5.33;4.77;;;13.80;81.50;;;;;;5057365;28;20241;-63
2022/06/15 02:44:59;;;;;;;8.23;4.80;;;13.80;81.50;;;;;;5060697;28;20277;-63
2022/06/15 02:47:28;;;;;;;5.40;4.90;;;13.80;81.50;;;;;;5037572;28;20211;-63
2022/06/15 02:49:54;;;;;;;5.33;4.83;;;13.70;81.60;;;;;;5065911;28;20185;-63
2022/06/15 02:52:24;;;;;;;6.53;4.80;;;13.70;81.80;;;;;;5055506;28;20258;-63
2022/06/15 02:54:52;;;;;;;8.03;5.07;;;13.70;81.80;;;;;;5063550;28;20227;-63
2022/06/15 02:57:18;;;;;;;6.47;5.00;;;13.70;81.80;;;;;;5047793;28;20177;-63
2022/06/15 02:59:45;;;;;;;8.40;5.43;;;13.60;82.10;;;;;;5055480;28;20182;-63
2022/06/15 03:02:14;;;;;;;5.70;4.80;;;13.70;81.90;;;;;;5043883;28;20239;-63
2022/06/15 03:04:44;;;;;;;5.33;4.83;;;13.70;82.00;;;;;;5038803;28;20187;-63
2022/06/15 03:07:11;;;;;;;7.97;4.57;;;13.80;82.00;;;;;;5051644;28;20188;-63
2022/06/15 03:09:38;;;;;;;6.87;4.50;;;13.70;81.90;;;;;;5052742;28;20186;-63
2022/06/15 03:12:05;;;;;;;6.03;5.37;;;13.70;81.80;;;;;;5047016;28;20257;-63
2022/06/15 03:14:31;;;;;;;7.20;4.87;;;13.70;81.80;;;;;;5068100;28;20205;-63
2022/06/15 03:16:57;;;;;;;7.20;5.17;;;13.70;81.90;;;;;;5053809;28;20267;-63
2022/06/15 03:19:23;;;;;;;6.67;5.13;;;13.70;81.80;;;;;;5048750;28;20282;-62
2022/06/15 03:21:49;;;;;;;5.43;4.93;;;13.70;82.00;;;;;;5050203;28;20270;-62
2022/06/15 03:24:14;;;;;;;8.20;4.73;;;13.70;82.10;;;;;;5038536;28;20179;-62
2022/06/15 03:26:40;;;;;;;6.43;5.10;;;13.70;82.10;;;;;;5052962;28;20210;-62
2022/06/15 03:29:06;;;;;;;7.23;5.30;;;13.70;82.20;;;;;;5032608;28;20199;-62
2022/06/15 03:31:32;;;;;;;6.03;4.67;;;13.70;82.00;;;;;;5034546;28;20198;-62
2022/06/15 03:33:58;;;;;;;5.63;5.03;;;13.60;82.30;;;;;;5067793;28;20233;-62
2022/06/15 03:36:24;;;;;;;5.40;4.87;;;13.70;82.30;;;;;;5078748;28;20208;-62
2022/06/15 03:38:50;;;;;;;7.10;4.90;;;13.80;82.00;;;;;;5048863;28;20218;-62
2022/06/15 03:41:17;;;;;;;7.40;5.33;;;13.80;82.20;;;;;;5074133;28;20189;-65
2022/06/15 03:43:43;;;;;;;7.80;5.10;;;13.80;82.00;;;;;;5049604;28;20193;-64
2022/06/15 03:46:10;;;;;;;7.97;5.50;;;13.80;82.00;;;;;;5067662;28;20209;-63
2022/06/15 03:48:35;;;;;;;6.43;5.33;;;13.80;82.10;;;;;;5046227;28;20193;-62
2022/06/15 03:51:01;;;;;;;5.27;4.27;;;13.80;82.00;;;;;;5040341;28;20273;-62
2022/06/15 03:53:27;;;;;;;8.37;5.17;;;13.80;82.00;;;;;;5074354;28;20210;-63
2022/06/15 03:55:52;;;;;;;5.53;5.00;;;13.80;81.90;;;;;;5080185;28;20327;-62
2022/06/15 03:58:19;;;;;;;7.43;5.70;;;13.90;82.10;;;;;;5034481;28;20201;-63
2022/06/15 04:00:45;;;;;;;6.33;5.00;;;13.90;82.20;;;;;;5048050;28;20230;-63
2022/06/15 04:03:11;;;;;;;8.17;5.37;;;13.90;82.10;;;;;;5030417;28;20191;-63
2022/06/15 04:05:45;;;;;;;6.00;5.40;;;13.90;81.90;;;;;;5049668;28;20240;-64
2022/06/15 04:08:36;;;;;;;6.13;4.90;;;13.90;81.90;;;;;;5062683;28;20198;-62
2022/06/15 04:11:58;;;;;;;7.93;5.50;;;14.00;81.80;;;;;;5042437;28;20226;-62
2022/06/15 04:14:04;;;;;;;5.30;4.80;;;14.00;82.10;;;;;;5057652;28;20214;-61
2022/06/15 04:16:30;;;;;;;6.77;5.07;;;14.00;82.10;;;;;;5034477;28;20193;-63
2022/06/15 04:18:56;;;;;;;5.97;5.10;;;14.00;81.90;;;;;;5047576;28;20190;-62
2022/06/15 04:21:22;;;;;;;5.50;4.57;;;14.10;81.80;;;;;;5044300;28;20270;-62
2022/06/15 04:23:48;;;;;;;5.03;4.53;;;14.10;81.80;;;;;;5044316;28;20217;-63
2022/06/15 04:26:13;;;;;;;5.47;4.97;;;14.10;81.80;;;;;;5044577;28;20198;-61
2022/06/15 04:28:40;;;;;;;6.70;5.40;;;14.20;81.90;;;;;;5065174;28;20236;-62
2022/06/15 04:31:06;;;;;;;6.50;4.93;;;14.10;82.00;;;;;;5036932;28;20186;-62
2022/06/15 04:33:32;;;;;;;5.83;5.17;;;14.20;81.90;;;;;;5047734;28;20211;-63
2022/06/15 04:35:58;;;;;;;6.33;4.87;;;14.20;81.80;;;;;;5049095;28;20192;-61
2022/06/15 04:38:25;;;;;;;11.80;4.97;;;14.20;81.80;;;;;;5043947;28;20183;-62
2022/06/15 04:40:51;;;;;;;5.40;4.90;;;14.20;82.00;;;;;;5043742;28;20202;-62
2022/06/15 04:43:16;;;;;;;7.20;5.00;;;14.20;82.10;;;;;;5047007;28;20186;-62
2022/06/15 04:45:42;;;;;;;6.83;5.30;;;14.30;81.90;;;;;;5052862;28;20194;-63
2022/06/15 04:48:09;;;;;;;6.30;4.63;;;14.30;82.00;;;;;;5053539;28;20270;-62
2022/06/15 04:50:35;;;;;;;6.63;4.50;;;14.30;81.90;;;;;;5045098;28;20202;-65
2022/06/15 04:53:02;;;;;;;7.67;5.47;;;14.30;81.90;;;;;;5047541;28;20217;-63
2022/06/15 04:55:29;;;;;;;6.43;5.37;;;14.30;81.80;;;;;;5046485;28;20178;-62
2022/06/15 04:57:56;;;;;;;8.70;5.10;;;14.40;81.60;;;;;;5041158;28;20210;-61
2022/06/15 05:00:24;;;;;;;6.87;5.03;;;14.40;81.60;;;;;;5040940;28;20318;-61
2022/06/15 05:02:50;;;;;;;6.33;5.27;;;14.40;81.80;;;;;;5051094;28;20252;-61
2022/06/15 05:05:16;;;;;;;6.43;5.37;;;14.40;81.90;;;;;;5052957;28;20197;-62
2022/06/15 05:07:42;;;;;;;7.87;5.60;;;14.50;81.70;;;;;;5047468;28;20183;-61
2022/06/15 05:10:13;;;;;;;8.43;5.40;;;14.60;81.40;;;;;;5036703;28;20194;-62
2022/06/15 05:12:39;;;;;;;8.33;5.33;;;14.60;81.50;;;;;;5048367;28;20241;-62
2022/06/15 05:15:06;;;;;;;7.13;6.23;;;14.60;81.50;;;;;;5022866;28;20183;-63
2022/06/15 05:17:31;;;;;;;8.30;5.80;;;14.70;81.10;;;;;;5021255;28;20191;-61
2022/06/15 05:19:57;;;;;;;6.83;5.47;;;14.80;80.80;;;;;;5042659;28;20183;-61
2022/06/15 05:22:23;;;;;;;9.17;5.00;;;14.80;81.00;;;;;;5040290;28;20274;-61
2022/06/15 05:24:48;;;;;;;6.17;5.30;;;14.80;80.90;;;;;;5030144;28;20194;-61
2022/06/15 05:27:14;;;;;;;7.73;5.83;;;14.90;80.90;;;;;;5021472;28;20187;-62
2022/06/15 05:29:40;;;;;;;9.27;5.43;;;14.90;80.80;;;;;;5056758;28;20196;-61
2022/06/15 05:32:07;;;;;;;9.10;5.50;;;14.90;80.80;;;;;;5035302;28;20304;-62
2022/06/15 05:34:33;;;;;;;10.83;6.10;;;15.00;81.10;;;;;;5051053;28;20185;-62
2022/06/15 05:36:59;;;;;;;9.50;5.77;;;15.00;80.70;;;;;;5053810;28;20217;-62
2022/06/15 05:39:25;;;;;;;7.47;5.50;;;15.10;80.70;;;;;;5058562;28;20225;-62
2022/06/15 05:41:51;;;;;;;9.53;4.97;;;15.10;80.70;;;;;;5039656;28;20211;-68
2022/06/15 05:44:34;;;;;;;7.83;5.60;;;15.20;80.40;;;;;;5031770;28;20217;-67
2022/06/15 05:47:00;;;;;;;8.90;6.10;;;15.30;80.50;;;;;;5044748;28;20204;-66
2022/06/15 05:49:27;;;;;;;9.93;5.87;;;15.40;80.40;;;;;;5059112;28;20191;-67
2022/06/15 05:51:52;;;;;;;7.80;5.40;;;15.40;80.40;;;;;;5034635;28;20179;-67
2022/06/15 05:54:18;;;;;;;9.87;5.63;;;15.50;80.10;;;;;;5044452;28;20186;-68
2022/06/15 05:56:44;;;;;;;6.67;5.93;;;15.50;80.00;;;;;;5038516;28;20186;-67
2022/06/15 05:59:10;;;;;;;9.10;5.93;;;15.50;80.00;;;;;;5056447;28;20270;-67
2022/06/15 06:01:37;;;;;;;6.60;5.10;;;15.70;79.90;;;;;;5043438;28;20287;-67
